| time (UTC) | temp F | wind direction | speed MPH | gust MPH | rain 1hr in | rain 24hr in | rain mn in | humidity % | barometer mb |
| 20260510224553 | 64 | 169 | 9.0 | 16.0 | 0.00 | 0.00 | 0.00 | 50 | 1025.1 |
| 20260510223055 | 64 | 147 | 8.0 | 14.0 | 0.00 | 0.00 | 0.00 | 50 | 1025.2 |
| 20260510221552 | 63 | 138 | 7.0 | 12.0 | 0.00 | 0.00 | 0.00 | 51 | 1025.3 |
| 20260510220057 | 63 | 155 | 7.0 | 16.0 | 0.00 | 0.00 | 0.00 | 52 | 1025.5 |
| 20260510214554 | 63 | 140 | 7.0 | 15.0 | 0.00 | 0.00 | 0.00 | 54 | 1025.6 |
| 20260510213054 | 62 | 153 | 3.0 | 14.0 | 0.00 | 0.00 | 0.00 | 58 | 1025.8 |
| 20260510211555 | 61 | 360 | 7.0 | 14.0 | 0.00 | 0.00 | 0.00 | 57 | 1026.1 |
| 20260510210057 | 61 | 360 | 9.0 | 17.0 | 0.00 | 0.00 | 0.00 | 57 | 1026.5 |
| 20260510204605 | 60 | 360 | 8.0 | 12.0 | 0.00 | 0.00 | 0.00 | 59 | 1026.7 |
| 20260510203056 | 60 | 360 | 7.0 | 14.0 | 0.00 | 0.00 | 0.00 | 62 | 1026.5 |
| 20260510201555 | 59 | 360 | 8.0 | 16.0 | 0.00 | 0.00 | 0.00 | 62 | 1026.5 |
| 20260510200056 | 60 | 360 | 1.0 | 13.0 | 0.00 | 0.00 | 0.00 | 61 | 1026.8 |
| 20260510194558 | 59 | 360 | 4.0 | 14.0 | 0.00 | 0.00 | 0.00 | 66 | 1026.7 |
| 20260510193056 | 58 | 360 | 6.0 | 15.0 | 0.00 | 0.00 | 0.00 | 65 | 1026.7 |
| 20260510191557 | 58 | 360 | 6.0 | 15.0 | 0.00 | 0.00 | 0.00 | 65 | 1026.9 |
| 20260510190057 | 59 | 360 | 5.0 | 13.0 | 0.00 | 0.00 | 0.00 | 67 | 1026.7 |
| 20260510184600 | 58 | 360 | 8.0 | 18.0 | 0.00 | 0.00 | 0.00 | 69 | 1026.8 |
| 20260510183056 | 57 | 360 | 10.0 | 18.0 | 0.00 | 0.00 | 0.00 | 70 | 1027.0 |
| 20260510181558 | 57 | 360 | 7.0 | 15.0 | 0.00 | 0.00 | 0.00 | 72 | 1027.2 |
| 20260510180058 | 56 | 360 | 8.0 | 15.0 | 0.00 | 0.00 | 0.00 | 74 | 1027.3 |
| 20260510174557 | 56 | 360 | 3.0 | 13.0 | 0.00 | 0.00 | 0.00 | 71 | 1027.6 |
| 20260510173055 | 56 | 360 | 1.0 | 14.0 | 0.00 | 0.00 | 0.00 | 73 | 1027.6 |
| 20260510171605 | 55 | 360 | 2.0 | 13.0 | 0.00 | 0.00 | 0.00 | 75 | 1027.4 |
| 20260510170056 | 54 | 360 | 5.0 | 11.0 | 0.00 | 0.00 | 0.00 | 78 | 1027.6 |
| 20260510164556 | 53 | 360 | 4.0 | 10.0 | 0.00 | 0.00 | 0.00 | 79 | 1027.6 |
| 20260510163057 | 52 | 360 | 5.0 | 10.0 | 0.00 | 0.00 | 0.00 | 81 | 1027.6 |
| 20260510161554 | 51 | 0 | 1.0 | 3.0 | 0.00 | 0.00 | 0.00 | 82 | 1027.6 |
| 20260510160054 | 50 | 360 | 0.0 | 3.0 | 0.00 | 0.00 | 0.00 | 83 | 1027.6 |
| 20260510154558 | 51 | 360 | 0.0 | 2.0 | 0.00 | 0.00 | 0.00 | 83 | 1027.8 |
| 20260510153057 | 51 | 0 | 0.0 | 2.0 | 0.00 | 0.00 | 0.00 | 83 | 1027.7 |
| 20260510151553 | 51 | 360 | 0.0 | 2.0 | 0.00 | 0.00 | 0.00 | 82 | 1027.6 |
| 20260510150057 | 50 | 360 | 0.0 | 2.0 | 0.00 | 0.00 | 0.00 | 85 | 1027.6 |
| 20260510144609 | 50 | 360 | 0.0 | 2.0 | 0.00 | 0.00 | 0.00 | 86 | 1027.4 |
| 20260510143108 | 49 | 360 | 0.0 | 2.0 | 0.00 | 0.00 | 0.00 | 88 | 1027.6 |
| 20260510141603 | 49 | 0 | 0.0 | 0.0 | 0.00 | 0.00 | 0.00 | 90 | 1027.7 |
| 20260510140056 | 48 | 0 | 0.0 | 0.0 | 0.00 | 0.00 | 0.00 | 91 | 1027.6 |
| 20260510134612 | 48 | 0 | 0.0 | 0.0 | 0.00 | 0.00 | 0.00 | 92 | 1027.3 |
| 20260510133055 | 48 | 0 | 0.0 | 0.0 | 0.00 | 0.00 | 0.00 | 92 | 1027.0 |
| 20260510131556 | 48 | 0 | 0.0 | 0.0 | 0.00 | 0.00 | 0.00 | 92 | 1026.7 |
| 20260510130057 | 48 | 0 | 0.0 | 0.0 | 0.00 | 0.00 | 0.00 | 93 | 1026.6 |
| 20260510124602 | 48 | 0 | 0.0 | 0.0 | 0.00 | 0.00 | 0.00 | 93 | 1026.3 |
| 20260510123057 | 47 | 0 | 0.0 | 0.0 | 0.00 | 0.00 | 0.00 | 93 | 1026.3 |
| 20260510121557 | 47 | 0 | 0.0 | 0.0 | 0.00 | 0.00 | 0.00 | 92 | 1026.1 |
| 20260510120058 | 47 | 0 | 0.0 | 0.0 | 0.00 | 0.00 | 0.00 | 93 | 1026.1 |
| 20260510114600 | 47 | 0 | 0.0 | 0.0 | 0.00 | 0.00 | 0.00 | 93 | 1026.1 |
| 20260510113057 | 47 | 0 | 0.0 | 0.0 | 0.00 | 0.00 | 0.00 | 92 | 1026.1 |
| 20260510111608 | 47 | 0 | 0.0 | 0.0 | 0.00 | 0.00 | 0.00 | 92 | 1026.1 |
| 20260510110054 | 47 | 0 | 0.0 | 0.0 | 0.00 | 0.00 | 0.00 | 92 | 1026.0 |
| 20260510104612 | 47 | 0 | 0.0 | 0.0 | 0.00 | 0.00 | 0.00 | 92 | 1026.0 |
| 20260510103059 | 47 | 0 | 0.0 | 0.0 | 0.00 | 0.00 | 0.00 | 92 | 1025.9 |
| 20260510101556 | 47 | 0 | 0.0 | 0.0 | 0.00 | 0.00 | 0.00 | 91 | 1025.9 |
| 20260510100059 | 47 | 0 | 0.0 | 0.0 | 0.00 | 0.00 | 0.00 | 91 | 1026.0 |
| 20260510094555 | 47 | 0 | 0.0 | 0.0 | 0.00 | 0.00 | 0.00 | 91 | 1026.0 |
| 20260510093057 | 47 | 0 | 0.0 | 2.0 | 0.00 | 0.00 | 0.00 | 91 | 1026.0 |
| 20260510091557 | 47 | 360 | 0.0 | 2.0 | 0.00 | 0.00 | 0.00 | 91 | 1026.0 |
| 20260510090110 | 47 | 360 | 1.0 | 8.0 | 0.00 | 0.00 | 0.00 | 90 | 1025.8 |
| 20260510084556 | 47 | 360 | 1.0 | 5.0 | 0.00 | 0.00 | 0.00 | 90 | 1025.6 |
| 20260510083056 | 47 | 360 | 1.0 | 3.0 | 0.00 | 0.00 | 0.00 | 89 | 1025.8 |
| 20260510081628 | 47 | 360 | 1.0 | 11.0 | 0.00 | 0.00 | 0.00 | 88 | 1025.3 |
| 20260510080055 | 48 | 360 | 1.0 | 10.0 | 0.00 | 0.00 | 0.00 | 87 | 1024.9 |
| 20260510074559 | 48 | 360 | 5.0 | 13.0 | 0.00 | 0.00 | 0.00 | 85 | 1025.2 |
| 20260510073055 | 49 | 360 | 6.0 | 10.0 | 0.00 | 0.00 | 0.00 | 84 | 1025.1 |
| 20260510071557 | 49 | 360 | 9.0 | 14.0 | 0.00 | 0.00 | 0.00 | 83 | 1025.1 |
| 20260510064556 | 49 | 360 | 10.0 | 19.0 | 0.00 | 0.00 | 0.00 | 81 | 1024.7 |
| 20260510063104 | 50 | 360 | 13.0 | 24.0 | 0.00 | 0.00 | 0.00 | 77 | 1024.1 |
| 20260510061555 | 51 | 360 | 17.0 | 29.0 | 0.00 | 0.00 | 0.00 | 72 | 1023.6 |
| 20260510060101 | 52 | 360 | 20.0 | 34.0 | 0.00 | 0.00 | 0.00 | 68 | 1023.6 |
| 20260510054559 | 52 | 360 | 27.0 | 34.0 | 0.00 | 0.00 | 0.00 | 68 | 1022.8 |
| 20260510053102 | 53 | 360 | 20.0 | 29.0 | 0.00 | 0.00 | 0.00 | 66 | 1023.2 |
| 20260510051645 | 53 | 360 | 20.0 | 35.0 | 0.00 | 0.00 | 0.00 | 65 | 1022.8 |
| 20260510050058 | 53 | 360 | 22.0 | 32.0 | 0.00 | 0.00 | 0.00 | 65 | 1022.7 |
| 20260510044557 | 54 | 360 | 28.0 | 40.0 | 0.00 | 0.00 | 0.00 | 63 | 1022.1 |
| 20260510043144 | 54 | 360 | 30.0 | 43.0 | 0.00 | 0.00 | 0.00 | 63 | 1022.1 |
| 20260510041558 | 55 | 360 | 27.0 | 38.0 | 0.00 | 0.00 | 0.00 | 61 | 1021.7 |
| 20260510040058 | 55 | 360 | 29.0 | 42.0 | 0.00 | 0.00 | 0.00 | 60 | 1021.1 |
| 20260510034557 | 56 | 360 | 29.0 | 40.0 | 0.00 | 0.00 | 0.00 | 59 | 1020.6 |
| 20260510033057 | 57 | 360 | 26.0 | 36.0 | 0.00 | 0.00 | 0.00 | 55 | 1020.2 |
| 20260510031627 | 59 | 360 | 22.0 | 36.0 | 0.00 | 0.00 | 0.00 | 51 | 1019.4 |
| 20260510030059 | 59 | 360 | 6.0 | 9.0 | 0.00 | 0.00 | 0.00 | 45 | 1017.9 |
| 20260510024555 | 59 | 0 | 0.0 | 8.0 | 0.00 | 0.00 | 0.00 | 43 | 1017.1 |
| 20260510023101 | 61 | 0 | 0.0 | 0.0 | 0.00 | 0.00 | 0.00 | 38 | 1016.7 |
| 20260510021601 | 62 | 0 | 0.0 | 6.0 | 0.00 | 0.00 | 0.00 | 37 | 1016.5 |
| 20260510020105 | 64 | 360 | 0.0 | 8.0 | 0.00 | 0.00 | 0.00 | 35 | 1016.2 |
| 20260510014556 | 64 | 360 | 0.0 | 6.0 | 0.00 | 0.00 | 0.00 | 37 | 1016.0 |
| 20260510013055 | 66 | 360 | 4.0 | 8.0 | 0.00 | 0.00 | 0.00 | 32 | 1015.7 |
| 20260510011609 | 67 | 360 | 3.0 | 5.0 | 0.00 | 0.00 | 0.00 | 29 | 1015.6 |
| 20260510010107 | 68 | 360 | 5.0 | 15.0 | 0.00 | 0.00 | 0.00 | 30 | 1015.5 |
| 20260510004559 | 70 | 360 | 10.0 | 24.0 | 0.00 | 0.00 | 0.00 | 24 | 1015.5 |
| 20260510003101 | 68 | 360 | 12.0 | 18.0 | 0.00 | 0.00 | 0.00 | 30 | 1015.3 |
| 20260510001556 | 69 | 360 | 2.0 | 11.0 | 0.00 | 0.00 | 0.00 | 30 | 1015.9 |
| 20260510000056 | 69 | 360 | 10.0 | 17.0 | 0.00 | 0.00 | 0.00 | 30 | 1015.3 |
| 20260509234608 | 70 | 360 | 12.0 | 19.0 | 0.00 | 0.00 | 0.00 | 28 | 1015.3 |
| 20260509233104 | 70 | 360 | 12.0 | 21.0 | 0.00 | 0.00 | 0.00 | 29 | 1015.1 |
| 20260509231604 | 70 | 360 | 13.0 | 21.0 | 0.00 | 0.00 | 0.00 | 28 | 1015.0 |
| 20260509230057 | 71 | 33 | 15.0 | 23.0 | 0.00 | 0.00 | 0.00 | 26 | 1014.8 |